sensor_id;sensor_type;location;lat;lon;timestamp;P1;durP1;ratioP1;P2;durP2;ratioP2
10383;SDS011;5238;43.508;4.980;2022-10-04T00:01:44;2.13;;;1.40;;
10383;SDS011;5238;43.508;4.980;2022-10-04T00:04:14;1.33;;;0.90;;
10383;SDS011;5238;43.508;4.980;2022-10-04T00:06:45;3.42;;;1.33;;
10383;SDS011;5238;43.508;4.980;2022-10-04T00:09:18;1.40;;;1.30;;
10383;SDS011;5238;43.508;4.980;2022-10-04T00:11:47;1.23;;;1.10;;
10383;SDS011;5238;43.508;4.980;2022-10-04T00:14:19;1.85;;;1.30;;
10383;SDS011;5238;43.508;4.980;2022-10-04T00:16:51;2.78;;;1.40;;
10383;SDS011;5238;43.508;4.980;2022-10-04T00:19:24;1.63;;;1.10;;
10383;SDS011;5238;43.508;4.980;2022-10-04T00:22:10;1.50;;;1.20;;
10383;SDS011;5238;43.508;4.980;2022-10-04T00:33:50;2.70;;;1.38;;
10383;SDS011;5238;43.508;4.980;2022-10-04T00:36:39;1.70;;;1.30;;
10383;SDS011;5238;43.508;4.980;2022-10-04T00:39:13;2.30;;;1.25;;
10383;SDS011;5238;43.508;4.980;2022-10-04T00:41:51;2.25;;;1.23;;
10383;SDS011;5238;43.508;4.980;2022-10-04T00:44:24;1.50;;;1.35;;
10383;SDS011;5238;43.508;4.980;2022-10-04T00:46:57;2.80;;;1.10;;
10383;SDS011;5238;43.508;4.980;2022-10-04T00:49:28;1.58;;;1.33;;
10383;SDS011;5238;43.508;4.980;2022-10-04T00:51:59;2.13;;;1.50;;
10383;SDS011;5238;43.508;4.980;2022-10-04T00:54:31;1.50;;;1.40;;
10383;SDS011;5238;43.508;4.980;2022-10-04T00:57:01;1.80;;;1.20;;
10383;SDS011;5238;43.508;4.980;2022-10-04T00:59:33;1.50;;;1.30;;
10383;SDS011;5238;43.508;4.980;2022-10-04T01:02:05;1.40;;;1.30;;
10383;SDS011;5238;43.508;4.980;2022-10-04T01:04:40;1.20;;;1.00;;
10383;SDS011;5238;43.508;4.980;2022-10-04T01:07:11;3.25;;;1.13;;
10383;SDS011;5238;43.508;4.980;2022-10-04T01:09:44;1.75;;;1.20;;
10383;SDS011;5238;43.508;4.980;2022-10-04T01:12:17;1.50;;;1.40;;
10383;SDS011;5238;43.508;4.980;2022-10-04T01:14:53;1.20;;;1.10;;
10383;SDS011;5238;43.508;4.980;2022-10-04T01:17:27;2.08;;;1.33;;
10383;SDS011;5238;43.508;4.980;2022-10-04T01:19:54;2.08;;;1.20;;
10383;SDS011;5238;43.508;4.980;2022-10-04T01:22:34;1.50;;;1.15;;
10383;SDS011;5238;43.508;4.980;2022-10-04T01:25:03;1.50;;;1.40;;
10383;SDS011;5238;43.508;4.980;2022-10-04T01:27:32;1.40;;;1.30;;
10383;SDS011;5238;43.508;4.980;2022-10-04T01:30:02;2.42;;;1.25;;
10383;SDS011;5238;43.508;4.980;2022-10-04T01:32:33;2.78;;;1.35;;
10383;SDS011;5238;43.508;4.980;2022-10-04T01:35:00;2.83;;;1.15;;
10383;SDS011;5238;43.508;4.980;2022-10-04T01:37:27;1.38;;;1.27;;
10383;SDS011;5238;43.508;4.980;2022-10-04T01:39:55;2.45;;;1.23;;
10383;SDS011;5238;43.508;4.980;2022-10-04T01:42:25;1.20;;;1.10;;
10383;SDS011;5238;43.508;4.980;2022-10-04T01:44:55;1.38;;;1.27;;
10383;SDS011;5238;43.508;4.980;2022-10-04T01:47:29;2.50;;;1.30;;
10383;SDS011;5238;43.508;4.980;2022-10-04T01:49:59;2.45;;;1.30;;
10383;SDS011;5238;43.508;4.980;2022-10-04T01:52:38;2.03;;;1.27;;
10383;SDS011;5238;43.508;4.980;2022-10-04T01:55:11;1.85;;;1.35;;
10383;SDS011;5238;43.508;4.980;2022-10-04T01:57:41;2.50;;;1.35;;
10383;SDS011;5238;43.508;4.980;2022-10-04T02:00:13;1.88;;;1.30;;
10383;SDS011;5238;43.508;4.980;2022-10-04T02:02:42;1.77;;;1.40;;
10383;SDS011;5238;43.508;4.980;2022-10-04T02:05:17;2.00;;;1.30;;
10383;SDS011;5238;43.508;4.980;2022-10-04T02:07:50;1.55;;;1.45;;
10383;SDS011;5238;43.508;4.980;2022-10-04T02:10:19;1.85;;;1.30;;
10383;SDS011;5238;43.508;4.980;2022-10-04T02:12:49;1.73;;;1.30;;
10383;SDS011;5238;43.508;4.980;2022-10-04T02:15:20;1.60;;;1.50;;
10383;SDS011;5238;43.508;4.980;2022-10-04T02:17:50;3.13;;;1.40;;
10383;SDS011;5238;43.508;4.980;2022-10-04T02:20:20;1.40;;;1.30;;
10383;SDS011;5238;43.508;4.980;2022-10-04T02:22:52;1.85;;;1.40;;
10383;SDS011;5238;43.508;4.980;2022-10-04T02:25:25;1.77;;;1.35;;
10383;SDS011;5238;43.508;4.980;2022-10-04T02:27:52;1.48;;;1.38;;
10383;SDS011;5238;43.508;4.980;2022-10-04T02:30:20;1.40;;;1.30;;
10383;SDS011;5238;43.508;4.980;2022-10-04T02:32:50;1.85;;;1.40;;
10383;SDS011;5238;43.508;4.980;2022-10-04T02:35:25;2.80;;;1.77;;
10383;SDS011;5238;43.508;4.980;2022-10-04T02:37:56;1.60;;;1.50;;
10383;SDS011;5238;43.508;4.980;2022-10-04T02:40:32;1.35;;;1.25;;
10383;SDS011;5238;43.508;4.980;2022-10-04T02:43:08;1.40;;;1.30;;
10383;SDS011;5238;43.508;4.980;2022-10-04T02:45:42;3.17;;;1.60;;
10383;SDS011;5238;43.508;4.980;2022-10-04T02:48:21;1.48;;;1.38;;
10383;SDS011;5238;43.508;4.980;2022-10-04T02:50:54;1.63;;;1.50;;
10383;SDS011;5238;43.508;4.980;2022-10-04T02:53:29;1.42;;;1.30;;
10383;SDS011;5238;43.508;4.980;2022-10-04T02:56:02;1.95;;;1.40;;
10383;SDS011;5238;43.508;4.980;2022-10-04T02:58:30;3.05;;;1.60;;
10383;SDS011;5238;43.508;4.980;2022-10-04T03:00:58;1.83;;;1.73;;
10383;SDS011;5238;43.508;4.980;2022-10-04T03:03:26;3.08;;;1.38;;
10383;SDS011;5238;43.508;4.980;2022-10-04T03:06:01;1.80;;;1.40;;
10383;SDS011;5238;43.508;4.980;2022-10-04T03:08:33;2.00;;;1.40;;
10383;SDS011;5238;43.508;4.980;2022-10-04T03:11:10;1.60;;;1.30;;
10383;SDS011;5238;43.508;4.980;2022-10-04T03:13:40;2.10;;;1.50;;
10383;SDS011;5238;43.508;4.980;2022-10-04T03:16:11;1.45;;;1.30;;
10383;SDS011;5238;43.508;4.980;2022-10-04T03:18:39;2.65;;;1.75;;
10383;SDS011;5238;43.508;4.980;2022-10-04T03:21:08;2.17;;;1.40;;
10383;SDS011;5238;43.508;4.980;2022-10-04T03:23:38;1.42;;;1.30;;
10383;SDS011;5238;43.508;4.980;2022-10-04T03:26:13;3.30;;;1.58;;
10383;SDS011;5238;43.508;4.980;2022-10-04T03:28:46;1.77;;;1.40;;
10383;SDS011;5238;43.508;4.980;2022-10-04T03:31:14;1.75;;;1.50;;
10383;SDS011;5238;43.508;4.980;2022-10-04T03:33:43;1.30;;;1.20;;
10383;SDS011;5238;43.508;4.980;2022-10-04T03:36:12;2.65;;;1.60;;
10383;SDS011;5238;43.508;4.980;2022-10-04T03:38:42;1.30;;;1.20;;
10383;SDS011;5238;43.508;4.980;2022-10-04T03:41:12;1.92;;;1.60;;
10383;SDS011;5238;43.508;4.980;2022-10-04T03:43:41;1.80;;;1.30;;
10383;SDS011;5238;43.508;4.980;2022-10-04T03:46:10;1.85;;;1.50;;
10383;SDS011;5238;43.508;4.980;2022-10-04T03:48:40;1.73;;;1.30;;
10383;SDS011;5238;43.508;4.980;2022-10-04T03:51:12;3.67;;;1.40;;
10383;SDS011;5238;43.508;4.980;2022-10-04T03:53:43;1.48;;;1.38;;
10383;SDS011;5238;43.508;4.980;2022-10-04T03:56:15;2.45;;;1.73;;
10383;SDS011;5238;43.508;4.980;2022-10-04T03:58:44;2.20;;;1.60;;
10383;SDS011;5238;43.508;4.980;2022-10-04T04:01:19;3.08;;;1.52;;
10383;SDS011;5238;43.508;4.980;2022-10-04T04:03:59;1.50;;;1.40;;
10383;SDS011;5238;43.508;4.980;2022-10-04T04:06:34;3.08;;;1.90;;
10383;SDS011;5238;43.508;4.980;2022-10-04T04:09:07;2.58;;;1.63;;
10383;SDS011;5238;43.508;4.980;2022-10-04T04:11:41;5.57;;;1.75;;
10383;SDS011;5238;43.508;4.980;2022-10-04T04:14:10;1.65;;;1.30;;
10383;SDS011;5238;43.508;4.980;2022-10-04T04:16:41;1.90;;;1.55;;
10383;SDS011;5238;43.508;4.980;2022-10-04T04:19:10;6.47;;;1.73;;
10383;SDS011;5238;43.508;4.980;2022-10-04T04:21:40;3.28;;;1.67;;
10383;SDS011;5238;43.508;4.980;2022-10-04T04:24:11;1.67;;;1.48;;
10383;SDS011;5238;43.508;4.980;2022-10-04T04:26:50;2.42;;;1.42;;
10383;SDS011;5238;43.508;4.980;2022-10-04T04:29:22;1.60;;;1.50;;
10383;SDS011;5238;43.508;4.980;2022-10-04T04:31:53;4.07;;;1.85;;
10383;SDS011;5238;43.508;4.980;2022-10-04T04:34:25;1.98;;;1.60;;
10383;SDS011;5238;43.508;4.980;2022-10-04T04:36:56;2.20;;;1.80;;
10383;SDS011;5238;43.508;4.980;2022-10-04T04:39:25;1.60;;;1.50;;
10383;SDS011;5238;43.508;4.980;2022-10-04T04:42:03;2.33;;;2.00;;
10383;SDS011;5238;43.508;4.980;2022-10-04T04:44:37;2.30;;;1.70;;
10383;SDS011;5238;43.508;4.980;2022-10-04T04:47:14;2.88;;;1.65;;
10383;SDS011;5238;43.508;4.980;2022-10-04T04:49:54;2.55;;;1.60;;
10383;SDS011;5238;43.508;4.980;2022-10-04T04:52:24;4.75;;;1.77;;
10383;SDS011;5238;43.508;4.980;2022-10-04T04:54:53;1.70;;;1.45;;
10383;SDS011;5238;43.508;4.980;2022-10-04T04:57:22;2.10;;;1.60;;
10383;SDS011;5238;43.508;4.980;2022-10-04T04:59:52;2.42;;;1.70;;
10383;SDS011;5238;43.508;4.980;2022-10-04T05:02:32;2.60;;;1.85;;
10383;SDS011;5238;43.508;4.980;2022-10-04T05:08:02;4.38;;;1.67;;
10383;SDS011;5238;43.508;4.980;2022-10-04T05:10:40;3.47;;;1.42;;
10383;SDS011;5238;43.508;4.980;2022-10-04T05:13:11;2.28;;;1.70;;
10383;SDS011;5238;43.508;4.980;2022-10-04T05:15:39;3.78;;;1.90;;
10383;SDS011;5238;43.508;4.980;2022-10-04T05:18:26;2.65;;;1.85;;
10383;SDS011;5238;43.508;4.980;2022-10-04T05:20:56;3.03;;;1.92;;
10383;SDS011;5238;43.508;4.980;2022-10-04T05:23:29;2.03;;;1.70;;
10383;SDS011;5238;43.508;4.980;2022-10-04T05:25:56;2.63;;;1.70;;
10383;SDS011;5238;43.508;4.980;2022-10-04T05:28:27;2.92;;;1.85;;
10383;SDS011;5238;43.508;4.980;2022-10-04T05:30:59;2.55;;;1.70;;
10383;SDS011;5238;43.508;4.980;2022-10-04T05:33:38;1.92;;;1.77;;
10383;SDS011;5238;43.508;4.980;2022-10-04T05:39:03;2.17;;;1.65;;
10383;SDS011;5238;43.508;4.980;2022-10-04T05:41:35;2.25;;;1.67;;
10383;SDS011;5238;43.508;4.980;2022-10-04T05:44:19;4.47;;;1.80;;
10383;SDS011;5238;43.508;4.980;2022-10-04T05:46:52;2.70;;;1.60;;
10383;SDS011;5238;43.508;4.980;2022-10-04T05:49:20;4.53;;;1.80;;
10383;SDS011;5238;43.508;4.980;2022-10-04T05:51:52;5.15;;;2.00;;
10383;SDS011;5238;43.508;4.980;2022-10-04T05:54:21;5.65;;;2.00;;
10383;SDS011;5238;43.508;4.980;2022-10-04T05:59:53;2.10;;;1.45;;
10383;SDS011;5238;43.508;4.980;2022-10-04T06:02:57;2.25;;;1.60;;
10383;SDS011;5238;43.508;4.980;2022-10-04T06:05:41;2.40;;;1.80;;
10383;SDS011;5238;43.508;4.980;2022-10-04T06:08:15;3.17;;;2.20;;
10383;SDS011;5238;43.508;4.980;2022-10-04T06:10:59;3.05;;;1.88;;
10383;SDS011;5238;43.508;4.980;2022-10-04T06:13:39;2.92;;;2.10;;
10383;SDS011;5238;43.508;4.980;2022-10-04T06:16:30;4.10;;;1.77;;
10383;SDS011;5238;43.508;4.980;2022-10-04T06:19:15;4.53;;;1.90;;
10383;SDS011;5238;43.508;4.980;2022-10-04T06:22:14;3.00;;;1.80;;
10383;SDS011;5238;43.508;4.980;2022-10-04T06:24:42;2.63;;;1.80;;
10383;SDS011;5238;43.508;4.980;2022-10-04T06:27:15;2.05;;;1.52;;
10383;SDS011;5238;43.508;4.980;2022-10-04T06:29:47;1.73;;;1.45;;
10383;SDS011;5238;43.508;4.980;2022-10-04T06:38:50;2.20;;;1.73;;
10383;SDS011;5238;43.508;4.980;2022-10-04T06:41:35;3.28;;;1.90;;
10383;SDS011;5238;43.508;4.980;2022-10-04T06:44:30;4.18;;;2.08;;
10383;SDS011;5238;43.508;4.980;2022-10-04T06:47:14;1.83;;;1.67;;
10383;SDS011;5238;43.508;4.980;2022-10-04T06:49:56;3.72;;;1.70;;
10383;SDS011;5238;43.508;4.980;2022-10-04T06:52:42;1.98;;;1.25;;
10383;SDS011;5238;43.508;4.980;2022-10-04T06:58:39;2.63;;;1.27;;
10383;SDS011;5238;43.508;4.980;2022-10-04T07:01:32;3.47;;;1.52;;
10383;SDS011;5238;43.508;4.980;2022-10-04T07:04:04;2.35;;;1.33;;
10383;SDS011;5238;43.508;4.980;2022-10-04T07:06:45;3.53;;;1.10;;
10383;SDS011;5238;43.508;4.980;2022-10-04T07:09:19;3.85;;;1.23;;
10383;SDS011;5238;43.508;4.980;2022-10-04T07:11:49;2.38;;;1.13;;
10383;SDS011;5238;43.508;4.980;2022-10-04T07:14:21;2.05;;;1.15;;
10383;SDS011;5238;43.508;4.980;2022-10-04T07:16:55;1.90;;;1.40;;
10383;SDS011;5238;43.508;4.980;2022-10-04T07:19:29;1.88;;;1.02;;
10383;SDS011;5238;43.508;4.980;2022-10-04T07:22:02;1.30;;;1.20;;
10383;SDS011;5238;43.508;4.980;2022-10-04T07:24:41;2.35;;;1.20;;
10383;SDS011;5238;43.508;4.980;2022-10-04T07:27:14;1.55;;;1.10;;
10383;SDS011;5238;43.508;4.980;2022-10-04T07:29:45;1.75;;;1.23;;
10383;SDS011;5238;43.508;4.980;2022-10-04T07:32:19;2.08;;;1.35;;
10383;SDS011;5238;43.508;4.980;2022-10-04T07:34:49;1.17;;;1.08;;
10383;SDS011;5238;43.508;4.980;2022-10-04T07:37:21;2.17;;;1.63;;
10383;SDS011;5238;43.508;4.980;2022-10-04T07:39:53;1.70;;;1.60;;
10383;SDS011;5238;43.508;4.980;2022-10-04T07:42:27;5.30;;;1.10;;
10383;SDS011;5238;43.508;4.980;2022-10-04T07:45:02;1.35;;;1.00;;
10383;SDS011;5238;43.508;4.980;2022-10-04T07:47:35;4.43;;;1.13;;
10383;SDS011;5238;43.508;4.980;2022-10-04T07:50:13;1.92;;;1.20;;
10383;SDS011;5238;43.508;4.980;2022-10-04T07:52:53;1.20;;;1.10;;
10383;SDS011;5238;43.508;4.980;2022-10-04T07:55:29;2.05;;;1.15;;
10383;SDS011;5238;43.508;4.980;2022-10-04T07:58:08;1.38;;;1.15;;
10383;SDS011;5238;43.508;4.980;2022-10-04T08:00:54;1.42;;;1.33;;
10383;SDS011;5238;43.508;4.980;2022-10-04T08:03:44;1.52;;;1.10;;
10383;SDS011;5238;43.508;4.980;2022-10-04T08:06:24;1.63;;;1.30;;
10383;SDS011;5238;43.508;4.980;2022-10-04T08:11:56;4.25;;;1.20;;
10383;SDS011;5238;43.508;4.980;2022-10-04T08:14:35;2.30;;;1.67;;
10383;SDS011;5238;43.508;4.980;2022-10-04T08:17:16;2.85;;;1.20;;
10383;SDS011;5238;43.508;4.980;2022-10-04T08:19:56;2.42;;;1.17;;
10383;SDS011;5238;43.508;4.980;2022-10-04T08:22:33;1.75;;;1.20;;
10383;SDS011;5238;43.508;4.980;2022-10-04T08:25:17;2.88;;;1.33;;
10383;SDS011;5238;43.508;4.980;2022-10-04T08:27:52;3.92;;;1.27;;
10383;SDS011;5238;43.508;4.980;2022-10-04T08:30:54;2.20;;;1.38;;
10383;SDS011;5238;43.508;4.980;2022-10-04T08:33:35;3.28;;;1.70;;
10383;SDS011;5238;43.508;4.980;2022-10-04T08:36:15;1.77;;;1.40;;
10383;SDS011;5238;43.508;4.980;2022-10-04T08:38:51;4.38;;;1.50;;
10383;SDS011;5238;43.508;4.980;2022-10-04T08:44:32;3.03;;;1.70;;
10383;SDS011;5238;43.508;4.980;2022-10-04T08:47:25;2.03;;;1.40;;
10383;SDS011;5238;43.508;4.980;2022-10-04T08:53:41;3.67;;;1.45;;
10383;SDS011;5238;43.508;4.980;2022-10-04T08:56:37;2.10;;;1.35;;
10383;SDS011;5238;43.508;4.980;2022-10-04T08:59:21;2.53;;;1.48;;
10383;SDS011;5238;43.508;4.980;2022-10-04T09:11:28;4.75;;;1.50;;
10383;SDS011;5238;43.508;4.980;2022-10-04T09:17:17;6.05;;;1.73;;
10383;SDS011;5238;43.508;4.980;2022-10-04T09:19:51;5.35;;;1.40;;
10383;SDS011;5238;43.508;4.980;2022-10-04T09:22:30;4.45;;;1.92;;
10383;SDS011;5238;43.508;4.980;2022-10-04T09:25:29;7.95;;;1.63;;
10383;SDS011;5238;43.508;4.980;2022-10-04T09:28:21;8.30;;;1.90;;
10383;SDS011;5238;43.508;4.980;2022-10-04T09:31:12;5.57;;;2.03;;
10383;SDS011;5238;43.508;4.980;2022-10-04T09:34:00;4.90;;;1.85;;
10383;SDS011;5238;43.508;4.980;2022-10-04T09:36:40;3.95;;;1.80;;
10383;SDS011;5238;43.508;4.980;2022-10-04T09:39:24;6.45;;;1.95;;
10383;SDS011;5238;43.508;4.980;2022-10-04T09:45:25;4.85;;;1.60;;
10383;SDS011;5238;43.508;4.980;2022-10-04T09:48:15;5.10;;;1.40;;
10383;SDS011;5238;43.508;4.980;2022-10-04T09:54:14;5.13;;;1.80;;
10383;SDS011;5238;43.508;4.980;2022-10-04T09:57:07;4.13;;;1.38;;
10383;SDS011;5238;43.508;4.980;2022-10-04T09:59:55;4.70;;;1.50;;
10383;SDS011;5238;43.508;4.980;2022-10-04T10:05:37;7.05;;;1.92;;
10383;SDS011;5238;43.508;4.980;2022-10-04T10:08:35;7.57;;;1.70;;
10383;SDS011;5238;43.508;4.980;2022-10-04T10:11:11;3.42;;;1.20;;
10383;SDS011;5238;43.508;4.980;2022-10-04T10:17:06;4.70;;;1.33;;
10383;SDS011;5238;43.508;4.980;2022-10-04T10:22:55;5.22;;;2.20;;
10383;SDS011;5238;43.508;4.980;2022-10-04T10:25:50;5.70;;;1.65;;
10383;SDS011;5238;43.508;4.980;2022-10-04T10:31:36;7.03;;;1.77;;
10383;SDS011;5238;43.508;4.980;2022-10-04T10:34:43;6.07;;;1.42;;
10383;SDS011;5238;43.508;4.980;2022-10-04T10:37:22;4.28;;;1.70;;
10383;SDS011;5238;43.508;4.980;2022-10-04T10:40:02;3.72;;;1.60;;
10383;SDS011;5238;43.508;4.980;2022-10-04T10:42:54;4.32;;;1.80;;
10383;SDS011;5238;43.508;4.980;2022-10-04T10:45:52;6.32;;;1.70;;
10383;SDS011;5238;43.508;4.980;2022-10-04T10:48:33;4.50;;;1.50;;
10383;SDS011;5238;43.508;4.980;2022-10-04T10:51:15;3.25;;;1.85;;
10383;SDS011;5238;43.508;4.980;2022-10-04T10:53:59;4.97;;;1.80;;
10383;SDS011;5238;43.508;4.980;2022-10-04T10:56:56;6.03;;;1.75;;
10383;SDS011;5238;43.508;4.980;2022-10-04T10:59:49;4.50;;;1.55;;
10383;SDS011;5238;43.508;4.980;2022-10-04T11:06:07;5.40;;;1.85;;
10383;SDS011;5238;43.508;4.980;2022-10-04T11:11:53;5.25;;;1.70;;
10383;SDS011;5238;43.508;4.980;2022-10-04T11:14:48;5.55;;;1.42;;
10383;SDS011;5238;43.508;4.980;2022-10-04T11:17:47;5.70;;;1.98;;
10383;SDS011;5238;43.508;4.980;2022-10-04T11:21:00;6.28;;;1.77;;
10383;SDS011;5238;43.508;4.980;2022-10-04T11:23:57;4.80;;;1.75;;
10383;SDS011;5238;43.508;4.980;2022-10-04T11:26:55;4.78;;;1.73;;
10383;SDS011;5238;43.508;4.980;2022-10-04T11:29:39;5.30;;;1.80;;
10383;SDS011;5238;43.508;4.980;2022-10-04T11:32:35;5.30;;;1.83;;
10383;SDS011;5238;43.508;4.980;2022-10-04T11:41:39;5.03;;;1.42;;
10383;SDS011;5238;43.508;4.980;2022-10-04T11:47:06;5.80;;;2.00;;
10383;SDS011;5238;43.508;4.980;2022-10-04T11:49:53;3.63;;;1.50;;
10383;SDS011;5238;43.508;4.980;2022-10-04T11:58:51;6.05;;;1.80;;
10383;SDS011;5238;43.508;4.980;2022-10-04T12:08:11;4.25;;;1.73;;
10383;SDS011;5238;43.508;4.980;2022-10-04T12:10:47;8.13;;;1.60;;
10383;SDS011;5238;43.508;4.980;2022-10-04T12:13:48;5.05;;;1.48;;
10383;SDS011;5238;43.508;4.980;2022-10-04T12:16:33;6.10;;;1.73;;
10383;SDS011;5238;43.508;4.980;2022-10-04T12:22:18;5.97;;;1.98;;
10383;SDS011;5238;43.508;4.980;2022-10-04T12:28:05;6.90;;;2.05;;
10383;SDS011;5238;43.508;4.980;2022-10-04T12:30:57;4.60;;;1.70;;
10383;SDS011;5238;43.508;4.980;2022-10-04T12:33:41;4.60;;;1.63;;
10383;SDS011;5238;43.508;4.980;2022-10-04T12:36:20;6.20;;;1.90;;
10383;SDS011;5238;43.508;4.980;2022-10-04T12:38:56;5.00;;;1.73;;
10383;SDS011;5238;43.508;4.980;2022-10-04T12:41:45;4.00;;;1.60;;
10383;SDS011;5238;43.508;4.980;2022-10-04T12:44:23;4.50;;;1.90;;
10383;SDS011;5238;43.508;4.980;2022-10-04T12:50:07;4.35;;;1.98;;
10383;SDS011;5238;43.508;4.980;2022-10-04T12:52:43;5.80;;;1.80;;
10383;SDS011;5238;43.508;4.980;2022-10-04T12:55:19;5.55;;;1.92;;
10383;SDS011;5238;43.508;4.980;2022-10-04T12:58:05;3.22;;;1.60;;
10383;SDS011;5238;43.508;4.980;2022-10-04T13:00:39;7.03;;;2.13;;
10383;SDS011;5238;43.508;4.980;2022-10-04T13:03:15;4.45;;;1.55;;
10383;SDS011;5238;43.508;4.980;2022-10-04T13:05:58;3.45;;;1.60;;
10383;SDS011;5238;43.508;4.980;2022-10-04T13:08:36;8.20;;;2.20;;
10383;SDS011;5238;43.508;4.980;2022-10-04T13:11:27;3.30;;;1.70;;
10383;SDS011;5238;43.508;4.980;2022-10-04T13:14:22;5.03;;;2.13;;
10383;SDS011;5238;43.508;4.980;2022-10-04T13:17:01;6.85;;;1.80;;
10383;SDS011;5238;43.508;4.980;2022-10-04T13:19:36;7.07;;;2.03;;
10383;SDS011;5238;43.508;4.980;2022-10-04T13:22:13;7.28;;;2.03;;
10383;SDS011;5238;43.508;4.980;2022-10-04T13:25:00;3.85;;;1.75;;
10383;SDS011;5238;43.508;4.980;2022-10-04T13:27:42;9.48;;;1.98;;
10383;SDS011;5238;43.508;4.980;2022-10-04T13:30:15;6.95;;;2.13;;
10383;SDS011;5238;43.508;4.980;2022-10-04T13:32:51;6.35;;;2.05;;
10383;SDS011;5238;43.508;4.980;2022-10-04T13:35:26;5.65;;;1.80;;
10383;SDS011;5238;43.508;4.980;2022-10-04T13:38:18;3.90;;;1.73;;
10383;SDS011;5238;43.508;4.980;2022-10-04T13:41:02;5.88;;;1.85;;
10383;SDS011;5238;43.508;4.980;2022-10-04T13:43:47;5.65;;;1.77;;
10383;SDS011;5238;43.508;4.980;2022-10-04T13:46:35;5.68;;;1.80;;
10383;SDS011;5238;43.508;4.980;2022-10-04T13:49:24;4.53;;;2.10;;
10383;SDS011;5238;43.508;4.980;2022-10-04T13:52:09;4.85;;;1.80;;
10383;SDS011;5238;43.508;4.980;2022-10-04T13:55:08;5.25;;;1.90;;
10383;SDS011;5238;43.508;4.980;2022-10-04T13:58:11;4.35;;;1.85;;
10383;SDS011;5238;43.508;4.980;2022-10-04T14:00:55;6.03;;;2.17;;
10383;SDS011;5238;43.508;4.980;2022-10-04T14:03:49;5.00;;;1.80;;
10383;SDS011;5238;43.508;4.980;2022-10-04T14:06:46;7.03;;;2.10;;
10383;SDS011;5238;43.508;4.980;2022-10-04T14:09:39;6.35;;;1.95;;
10383;SDS011;5238;43.508;4.980;2022-10-04T14:12:29;5.13;;;1.77;;
10383;SDS011;5238;43.508;4.980;2022-10-04T14:21:26;5.03;;;1.80;;
10383;SDS011;5238;43.508;4.980;2022-10-04T14:24:26;5.70;;;1.80;;
10383;SDS011;5238;43.508;4.980;2022-10-04T14:30:40;4.47;;;1.80;;
10383;SDS011;5238;43.508;4.980;2022-10-04T14:36:29;5.30;;;2.33;;
10383;SDS011;5238;43.508;4.980;2022-10-04T14:39:21;5.90;;;2.10;;
10383;SDS011;5238;43.508;4.980;2022-10-04T14:42:18;4.45;;;1.60;;
10383;SDS011;5238;43.508;4.980;2022-10-04T14:48:17;6.85;;;2.00;;
10383;SDS011;5238;43.508;4.980;2022-10-04T14:53:53;4.85;;;1.95;;
10383;SDS011;5238;43.508;4.980;2022-10-04T15:02:31;8.55;;;2.15;;
10383;SDS011;5238;43.508;4.980;2022-10-04T15:05:23;6.88;;;1.92;;
10383;SDS011;5238;43.508;4.980;2022-10-04T15:08:08;5.82;;;1.80;;
10383;SDS011;5238;43.508;4.980;2022-10-04T15:10:53;4.68;;;1.83;;
10383;SDS011;5238;43.508;4.980;2022-10-04T15:13:24;6.10;;;1.95;;
10383;SDS011;5238;43.508;4.980;2022-10-04T15:16:01;5.50;;;2.30;;
10383;SDS011;5238;43.508;4.980;2022-10-04T15:18:52;6.35;;;1.95;;
10383;SDS011;5238;43.508;4.980;2022-10-04T15:21:31;6.00;;;1.90;;
10383;SDS011;5238;43.508;4.980;2022-10-04T15:24:19;7.03;;;1.98;;
10383;SDS011;5238;43.508;4.980;2022-10-04T15:29:59;7.05;;;2.10;;
10383;SDS011;5238;43.508;4.980;2022-10-04T15:32:35;4.25;;;1.98;;
10383;SDS011;5238;43.508;4.980;2022-10-04T15:35:14;5.13;;;1.90;;
10383;SDS011;5238;43.508;4.980;2022-10-04T15:37:49;5.63;;;1.98;;
10383;SDS011;5238;43.508;4.980;2022-10-04T15:40:27;6.47;;;1.85;;
10383;SDS011;5238;43.508;4.980;2022-10-04T15:43:09;5.65;;;2.00;;
10383;SDS011;5238;43.508;4.980;2022-10-04T15:48:53;3.65;;;1.50;;
10383;SDS011;5238;43.508;4.980;2022-10-04T15:52:11;5.82;;;1.73;;
10383;SDS011;5238;43.508;4.980;2022-10-04T15:55:02;3.88;;;1.90;;
10383;SDS011;5238;43.508;4.980;2022-10-04T15:58:07;6.10;;;2.08;;
10383;SDS011;5238;43.508;4.980;2022-10-04T16:00:55;7.00;;;2.05;;
10383;SDS011;5238;43.508;4.980;2022-10-04T16:03:35;4.38;;;1.42;;
10383;SDS011;5238;43.508;4.980;2022-10-04T16:06:09;5.05;;;1.73;;
10383;SDS011;5238;43.508;4.980;2022-10-04T16:11:55;4.47;;;1.67;;
10383;SDS011;5238;43.508;4.980;2022-10-04T16:14:32;5.28;;;1.92;;
10383;SDS011;5238;43.508;4.980;2022-10-04T16:17:27;9.27;;;2.15;;
10383;SDS011;5238;43.508;4.980;2022-10-04T16:20:26;5.53;;;1.90;;
10383;SDS011;5238;43.508;4.980;2022-10-04T16:23:21;5.13;;;2.00;;
10383;SDS011;5238;43.508;4.980;2022-10-04T16:25:55;6.47;;;2.38;;
10383;SDS011;5238;43.508;4.980;2022-10-04T16:28:47;4.95;;;2.20;;
10383;SDS011;5238;43.508;4.980;2022-10-04T16:31:40;4.93;;;2.50;;
10383;SDS011;5238;43.508;4.980;2022-10-04T16:37:24;5.88;;;2.50;;
10383;SDS011;5238;43.508;4.980;2022-10-04T16:40:00;6.20;;;2.30;;
10383;SDS011;5238;43.508;4.980;2022-10-04T16:42:32;6.55;;;2.78;;
10383;SDS011;5238;43.508;4.980;2022-10-04T16:45:27;7.20;;;2.92;;
10383;SDS011;5238;43.508;4.980;2022-10-04T16:51:15;8.00;;;2.88;;
10383;SDS011;5238;43.508;4.980;2022-10-04T16:54:01;10.18;;;2.88;;
10383;SDS011;5238;43.508;4.980;2022-10-04T16:59:46;5.03;;;3.15;;
10383;SDS011;5238;43.508;4.980;2022-10-04T17:02:22;6.90;;;2.63;;
10383;SDS011;5238;43.508;4.980;2022-10-04T17:05:05;8.43;;;2.90;;
10383;SDS011;5238;43.508;4.980;2022-10-04T17:08:01;8.40;;;3.03;;
10383;SDS011;5238;43.508;4.980;2022-10-04T17:11:07;9.05;;;3.13;;
10383;SDS011;5238;43.508;4.980;2022-10-04T17:14:01;8.85;;;3.40;;
10383;SDS011;5238;43.508;4.980;2022-10-04T17:16:48;8.35;;;3.60;;
10383;SDS011;5238;43.508;4.980;2022-10-04T17:19:27;6.20;;;3.08;;
10383;SDS011;5238;43.508;4.980;2022-10-04T17:22:04;8.38;;;3.10;;
10383;SDS011;5238;43.508;4.980;2022-10-04T17:24:43;6.82;;;3.75;;
10383;SDS011;5238;43.508;4.980;2022-10-04T17:27:24;8.68;;;3.45;;
10383;SDS011;5238;43.508;4.980;2022-10-04T17:29:56;10.95;;;3.60;;
10383;SDS011;5238;43.508;4.980;2022-10-04T17:32:34;10.40;;;3.30;;
10383;SDS011;5238;43.508;4.980;2022-10-04T17:35:15;8.10;;;3.17;;
10383;SDS011;5238;43.508;4.980;2022-10-04T17:38:12;5.93;;;3.00;;
10383;SDS011;5238;43.508;4.980;2022-10-04T17:40:47;9.00;;;3.40;;
10383;SDS011;5238;43.508;4.980;2022-10-04T17:43:22;8.95;;;3.50;;
10383;SDS011;5238;43.508;4.980;2022-10-04T17:46:00;7.72;;;3.95;;
10383;SDS011;5238;43.508;4.980;2022-10-04T17:48:40;9.88;;;3.95;;
10383;SDS011;5238;43.508;4.980;2022-10-04T17:54:30;8.40;;;3.53;;
10383;SDS011;5238;43.508;4.980;2022-10-04T17:57:24;8.63;;;3.22;;
10383;SDS011;5238;43.508;4.980;2022-10-04T18:00:05;8.98;;;3.35;;
10383;SDS011;5238;43.508;4.980;2022-10-04T18:02:45;7.82;;;3.60;;
10383;SDS011;5238;43.508;4.980;2022-10-04T18:05:32;12.27;;;3.97;;
10383;SDS011;5238;43.508;4.980;2022-10-04T18:08:12;11.32;;;3.85;;
10383;SDS011;5238;43.508;4.980;2022-10-04T18:10:45;9.38;;;3.35;;
10383;SDS011;5238;43.508;4.980;2022-10-04T18:13:17;6.97;;;3.00;;
10383;SDS011;5238;43.508;4.980;2022-10-04T18:15:52;5.43;;;2.90;;
10383;SDS011;5238;43.508;4.980;2022-10-04T18:18:25;8.93;;;3.55;;
10383;SDS011;5238;43.508;4.980;2022-10-04T18:21:06;8.68;;;3.65;;
10383;SDS011;5238;43.508;4.980;2022-10-04T18:23:52;8.25;;;4.38;;
10383;SDS011;5238;43.508;4.980;2022-10-04T18:26:21;10.57;;;5.07;;
10383;SDS011;5238;43.508;4.980;2022-10-04T18:28:51;9.30;;;4.45;;
10383;SDS011;5238;43.508;4.980;2022-10-04T18:31:22;14.85;;;6.97;;
10383;SDS011;5238;43.508;4.980;2022-10-04T18:33:55;13.02;;;7.00;;
10383;SDS011;5238;43.508;4.980;2022-10-04T18:36:28;8.73;;;5.50;;
10383;SDS011;5238;43.508;4.980;2022-10-04T18:39:00;10.55;;;5.97;;
10383;SDS011;5238;43.508;4.980;2022-10-04T18:41:43;12.82;;;5.35;;
10383;SDS011;5238;43.508;4.980;2022-10-04T18:44:19;9.10;;;5.13;;
10383;SDS011;5238;43.508;4.980;2022-10-04T18:46:47;10.25;;;5.10;;